Terminal Aerodrome Forecast
Issued by NWS

Home | Current Version | Previous Version | Text Only | Print | Product List | Glossary On
Versions: 1 2 3 4 5 6 7 8 9 10 11 12 13 14 15
003
FTUS46 KSEW 280542
TAFOLM
TAF
KOLM 280542Z 2806/2906 22010KT P6SM SKC
     FM281000 20006KT P6SM OVC015
     FM281800 20006KT P6SM BKN025
     FM282000 20006KT P6SM SCT035=

USA.gov is the U.S. government's official web portal to all federal, state and local government web resources and services.